Huber, Ohio
Current Conditions -  °F | °C
As of 10:58 AM on Friday 21 Nov 2014 (Local Time) from KFFO Reporting Station
Clear Clear  
Wind Chill: 22°   Ceiling: Unl
Heat Index: 22°   Visibility: 10mi
Dew Point:   Wind: 0mph
Humidity: 59%   Direction: NA
Pressure: 30.52"   Gusts: NA
Location:  39.8476°N, 84.1086°W
Report Text: KFFO 211558Z AUTO 00000KT 10SM CLR M06/M13 A3052 RMK AO2 SLP351 T10571126
Loading
Personal Weather Stations






























Interactive Weather Map New forecast layout! Learn more

10-Day Weather Forecast

Advertisements
Track Severe Weather on mobile